createdAt,value
2023-07-01T00:00:11.637Z,11.30
2023-07-01T00:00:44.069Z,11.37
2023-07-01T00:01:16.209Z,12.70
2023-07-01T00:01:48.246Z,12.73
2023-07-01T00:02:20.667Z,12.23
2023-07-01T00:02:54.338Z,11.90
2023-07-01T00:03:31.616Z,11.50
2023-07-01T00:04:04.178Z,11.87
2023-07-01T00:04:36.438Z,12.23
2023-07-01T00:05:09.415Z,12.40
2023-07-01T00:05:41.697Z,12.50
2023-07-01T00:06:13.689Z,12.10
2023-07-01T00:06:45.675Z,12.70
2023-07-01T00:07:17.754Z,13.07
2023-07-01T00:07:49.739Z,12.53
2023-07-01T00:08:21.688Z,12.63
2023-07-01T00:08:54.823Z,12.90
2023-07-01T00:09:26.831Z,12.47
2023-07-01T00:09:58.787Z,12.63
2023-07-01T00:10:30.813Z,13.40
2023-07-01T00:11:02.867Z,12.47
2023-07-01T00:11:34.788Z,11.57
2023-07-01T00:12:06.914Z,13.20
2023-07-01T00:12:38.882Z,13.50
2023-07-01T00:13:10.822Z,12.83
2023-07-01T00:13:42.745Z,12.93
2023-07-01T00:14:14.685Z,12.43
2023-07-01T00:14:46.629Z,12.90
2023-07-01T00:15:18.827Z,13.40
2023-07-01T00:15:50.846Z,13.57
2023-07-01T00:16:22.825Z,12.93
2023-07-01T00:16:56.133Z,13.13
2023-07-01T00:17:28.133Z,13.43
2023-07-01T00:18:00.274Z,13.93
2023-07-01T00:18:32.778Z,13.23
2023-07-01T00:19:04.794Z,13.57
2023-07-01T00:19:36.710Z,13.80
2023-07-01T00:20:09.181Z,13.33
2023-07-01T00:20:41.090Z,14.23
2023-07-01T00:21:13.190Z,14.37
2023-07-01T00:21:45.142Z,13.33
2023-07-01T00:22:17.102Z,13.40
2023-07-01T00:22:49.298Z,12.07
2023-07-01T00:23:21.706Z,12.20
2023-07-01T00:23:53.670Z,12.87
2023-07-01T00:24:25.644Z,13.63
2023-07-01T00:24:57.598Z,14.03
2023-07-01T00:25:29.676Z,13.03
2023-07-01T00:26:03.016Z,13.60
2023-07-01T00:26:34.957Z,13.70
2023-07-01T00:27:07.330Z,12.43
2023-07-01T00:27:39.598Z,12.50
2023-07-01T00:28:11.713Z,13.07
2023-07-01T00:28:43.609Z,13.40
2023-07-01T00:29:16.356Z,13.10
2023-07-01T00:29:48.323Z,13.83
2023-07-01T00:30:20.295Z,14.37
2023-07-01T00:30:52.295Z,14.13
2023-07-01T00:31:24.470Z,12.90
2023-07-01T00:31:56.544Z,13.67
2023-07-01T00:32:28.543Z,13.97
2023-07-01T00:33:02.058Z,14.47
2023-07-01T00:33:34.170Z,13.73
2023-07-01T00:34:06.217Z,13.33
2023-07-01T00:34:38.180Z,13.33
2023-07-01T00:35:10.125Z,13.23
2023-07-01T00:35:42.223Z,13.50
2023-07-01T00:36:14.268Z,13.53
2023-07-01T00:36:46.734Z,14.20
2023-07-01T00:37:18.639Z,13.67
2023-07-01T00:37:50.564Z,13.97
2023-07-01T00:38:22.552Z,14.53
2023-07-01T00:38:54.510Z,13.73
2023-07-01T00:39:26.443Z,13.63
2023-07-01T00:39:58.354Z,13.50
2023-07-01T00:40:30.524Z,14.83
2023-07-01T00:41:02.698Z,13.47
2023-07-01T00:41:34.643Z,14.33
2023-07-01T00:42:06.761Z,13.70
2023-07-01T00:42:39.901Z,13.57
2023-07-01T00:43:11.865Z,13.70
2023-07-01T00:43:46.340Z,13.57
2023-07-01T00:44:18.301Z,13.20
2023-07-01T00:44:50.269Z,13.03
2023-07-01T00:45:22.291Z,14.30
2023-07-01T00:45:55.452Z,13.87
2023-07-01T00:46:27.539Z,13.47
2023-07-01T00:47:00.396Z,13.63
2023-07-01T00:47:32.400Z,13.70
2023-07-01T00:48:04.529Z,13.77
2023-07-01T00:48:40.743Z,13.63
2023-07-01T00:49:12.656Z,13.83
2023-07-01T00:49:45.244Z,13.40
2023-07-01T00:50:17.506Z,13.20
2023-07-01T00:50:50.375Z,12.90
2023-07-01T00:51:22.635Z,13.23
2023-07-01T00:51:55.239Z,13.33
2023-07-01T00:52:27.356Z,13.53
2023-07-01T00:53:00.240Z,13.87
2023-07-01T00:53:32.193Z,13.67
2023-07-01T00:54:04.281Z,13.47
2023-07-01T00:54:37.025Z,13.17
2023-07-01T00:55:11.319Z,12.57
2023-07-01T00:55:43.334Z,13.93
2023-07-01T00:56:15.274Z,14.10
2023-07-01T00:56:47.458Z,13.47
2023-07-01T00:57:19.391Z,12.70
2023-07-01T00:57:51.323Z,12.63
2023-07-01T00:58:23.303Z,12.83
2023-07-01T00:58:55.345Z,13.03
2023-07-01T00:59:27.359Z,13.57
2023-07-01T00:59:59.316Z,13.97
2023-07-01T01:00:31.547Z,13.63
2023-07-01T01:01:13.465Z,14.17
2023-07-01T01:01:49.481Z,13.00
2023-07-01T01:02:38.571Z,14.00
2023-07-01T01:03:16.445Z,13.97
2023-07-01T01:04:23.514Z,14.00
2023-07-01T01:05:11.629Z,14.50
2023-07-01T01:05:51.282Z,13.93
2023-07-01T01:06:42.816Z,14.00
2023-07-01T01:07:38.885Z,14.00
2023-07-01T01:08:22.396Z,13.07
2023-07-01T01:09:04.636Z,13.13
2023-07-01T01:09:47.168Z,14.23
2023-07-01T01:10:26.599Z,14.27
2023-07-01T01:11:02.421Z,14.33
2023-07-01T01:11:35.560Z,14.43
2023-07-01T01:12:12.076Z,13.97
2023-07-01T01:12:46.404Z,13.50
2023-07-01T01:13:20.783Z,13.17
2023-07-01T01:13:54.453Z,13.13
2023-07-01T01:14:29.315Z,13.37
2023-07-01T01:15:03.281Z,14.03
2023-07-01T01:15:35.681Z,13.33
2023-07-01T01:16:08.066Z,13.13
2023-07-01T01:16:42.881Z,14.00
2023-07-01T01:17:16.512Z,13.87
2023-07-01T01:17:54.243Z,12.83
2023-07-01T01:18:32.290Z,12.80
2023-07-01T01:19:20.950Z,13.50
2023-07-01T01:19:56.061Z,12.80
2023-07-01T01:20:32.398Z,12.57
2023-07-01T01:21:07.143Z,12.90
2023-07-01T01:21:40.309Z,12.53
2023-07-01T01:22:42.984Z,12.60
2023-07-01T01:23:26.426Z,12.33
2023-07-01T01:24:02.263Z,12.67
2023-07-01T01:24:39.439Z,12.10
2023-07-01T01:25:19.764Z,11.93
2023-07-01T01:26:03.608Z,11.73
2023-07-01T01:26:41.833Z,11.90
2023-07-01T01:27:19.121Z,12.17
2023-07-01T01:27:54.246Z,12.23
2023-07-01T01:28:26.563Z,13.03
2023-07-01T01:28:58.942Z,12.03
2023-07-01T01:29:30.958Z,10.87
2023-07-01T01:30:02.974Z,11.50
2023-07-01T01:30:35.373Z,11.57
2023-07-01T01:31:10.193Z,11.50
2023-07-01T01:31:42.170Z,11.73
2023-07-01T01:32:14.107Z,11.27
2023-07-01T01:32:46.061Z,12.03
2023-07-01T01:33:18.323Z,11.77
2023-07-01T01:33:50.297Z,11.23
2023-07-01T01:34:22.252Z,11.90
2023-07-01T01:34:54.156Z,12.13
2023-07-01T01:35:26.242Z,11.57
2023-07-01T01:36:11.773Z,11.60
2023-07-01T01:36:55.386Z,11.53
2023-07-01T01:38:08.435Z,11.03
2023-07-01T01:38:42.380Z,10.97
2023-07-01T01:39:21.747Z,11.60
2023-07-01T01:40:00.950Z,13.00
2023-07-01T01:40:45.653Z,12.03
2023-07-01T01:41:24.329Z,12.00
2023-07-01T01:42:03.788Z,11.87
2023-07-01T01:42:38.837Z,12.03
2023-07-01T01:43:27.846Z,11.63
2023-07-01T01:44:12.725Z,12.23
2023-07-01T01:44:53.026Z,11.73
2023-07-01T01:45:25.189Z,10.37
2023-07-01T01:45:58.804Z,10.57
2023-07-01T01:46:32.815Z,12.03
2023-07-01T01:47:07.109Z,12.27
2023-07-01T01:47:40.154Z,12.17
2023-07-01T01:48:14.237Z,11.77
2023-07-01T01:48:46.217Z,11.80
2023-07-01T01:49:19.035Z,11.60
2023-07-01T01:49:57.220Z,11.37
2023-07-01T01:50:30.360Z,11.37
2023-07-01T01:51:05.373Z,10.97
2023-07-01T01:51:40.587Z,11.20
2023-07-01T01:52:17.981Z,10.93
2023-07-01T01:52:53.002Z,11.30
2023-07-01T01:53:28.868Z,11.67
2023-07-01T01:54:04.898Z,11.03
2023-07-01T01:54:37.030Z,10.73
2023-07-01T01:55:11.747Z,10.23
2023-07-01T01:55:45.142Z,10.47
2023-07-01T01:56:17.640Z,10.17
2023-07-01T01:56:50.249Z,9.93
2023-07-01T01:57:22.774Z,9.90
2023-07-01T01:57:54.912Z,10.83
2023-07-01T01:58:27.731Z,10.93
2023-07-01T01:59:01.136Z,10.80
2023-07-01T01:59:34.369Z,10.87
2023-07-01T02:00:09.745Z,11.17
2023-07-01T02:00:42.182Z,9.97
2023-07-01T02:01:16.582Z,10.53
2023-07-01T02:01:48.603Z,10.23
2023-07-01T02:02:20.750Z,10.77
2023-07-01T02:02:52.907Z,10.37
2023-07-01T02:03:25.199Z,9.73
2023-07-01T02:03:58.234Z,9.80
2023-07-01T02:04:30.682Z,10.07
2023-07-01T02:05:02.930Z,10.50
2023-07-01T02:05:34.975Z,10.53
2023-07-01T02:06:07.008Z,10.50
2023-07-01T02:06:39.019Z,10.07
2023-07-01T02:07:11.002Z,10.63
2023-07-01T02:07:43.056Z,11.40
2023-07-01T02:08:15.025Z,11.23
2023-07-01T02:08:47.393Z,10.87
2023-07-01T02:09:19.585Z,10.30
2023-07-01T02:09:51.505Z,11.03
2023-07-01T02:10:23.460Z,10.73
2023-07-01T02:10:55.390Z,11.20
2023-07-01T02:11:27.419Z,10.87
2023-07-01T02:11:59.762Z,10.20
2023-07-01T02:12:31.907Z,9.60
2023-07-01T02:13:04.053Z,11.33
2023-07-01T02:13:36.079Z,10.70
2023-07-01T02:14:08.023Z,10.13
2023-07-01T02:14:40.004Z,9.77
2023-07-01T02:15:12.205Z,9.90
2023-07-01T02:15:44.115Z,10.67
2023-07-01T02:16:16.222Z,10.70
2023-07-01T02:16:48.475Z,10.53
2023-07-01T02:17:20.538Z,10.50
2023-07-01T02:17:54.283Z,11.83
2023-07-01T02:18:26.487Z,12.00
2023-07-01T02:18:58.643Z,10.80
2023-07-01T02:19:30.579Z,11.77
2023-07-01T02:20:02.530Z,11.87
2023-07-01T02:20:34.455Z,12.10
2023-07-01T02:21:08.052Z,11.87
2023-07-01T02:21:40.000Z,11.77
2023-07-01T02:22:12.092Z,12.10
2023-07-01T02:22:44.021Z,11.30
2023-07-01T02:23:16.088Z,11.30
2023-07-01T02:23:48.044Z,11.10
2023-07-01T02:24:19.984Z,11.93
2023-07-01T02:24:52.007Z,13.67
2023-07-01T02:25:23.991Z,11.90
2023-07-01T02:25:56.026Z,11.07
2023-07-01T02:26:28.096Z,11.50
2023-07-01T02:27:00.797Z,11.57
2023-07-01T02:27:32.851Z,10.47
2023-07-01T02:28:04.931Z,10.80
2023-07-01T02:28:36.844Z,10.93
2023-07-01T02:29:09.870Z,11.67
2023-07-01T02:29:41.837Z,11.23
2023-07-01T02:30:14.082Z,11.20
2023-07-01T02:30:46.749Z,10.63
2023-07-01T02:31:19.914Z,10.03
2023-07-01T02:31:52.029Z,10.90
2023-07-01T02:32:24.009Z,11.20
2023-07-01T02:32:56.219Z,11.60
2023-07-01T02:33:28.345Z,11.30
2023-07-01T02:34:04.370Z,11.27
2023-07-01T02:34:36.274Z,10.53
2023-07-01T02:35:08.689Z,10.97
2023-07-01T02:35:40.643Z,10.83
2023-07-01T02:36:12.640Z,10.47
2023-07-01T02:36:44.696Z,10.20
2023-07-01T02:37:16.668Z,10.97
2023-07-01T02:37:48.652Z,11.97
2023-07-01T02:38:20.574Z,11.33
2023-07-01T02:38:52.500Z,10.50
2023-07-01T02:39:24.487Z,11.17
2023-07-01T02:39:56.453Z,11.67
2023-07-01T02:40:29.025Z,10.83
2023-07-01T02:41:00.944Z,10.43
2023-07-01T02:41:32.915Z,9.87
2023-07-01T02:42:04.998Z,9.77
2023-07-01T02:42:36.942Z,10.57
2023-07-01T02:43:08.862Z,10.03
2023-07-01T02:43:40.775Z,10.00
2023-07-01T02:44:12.801Z,9.80
2023-07-01T02:44:44.701Z,8.43
2023-07-01T02:45:16.716Z,8.27
2023-07-01T02:45:48.722Z,9.13
2023-07-01T02:46:20.818Z,9.83
2023-07-01T02:46:53.814Z,9.77
2023-07-01T02:47:25.789Z,10.30
2023-07-01T02:47:57.740Z,9.97
2023-07-01T02:48:29.689Z,9.53
2023-07-01T02:49:01.649Z,7.93
2023-07-01T02:49:33.658Z,9.47
2023-07-01T02:50:06.498Z,10.90
2023-07-01T02:50:38.521Z,10.43
2023-07-01T02:51:10.471Z,9.47
2023-07-01T02:51:42.646Z,9.53
2023-07-01T02:52:14.660Z,10.50
2023-07-01T02:52:46.576Z,10.73
2023-07-01T02:53:21.406Z,11.57
2023-07-01T02:53:53.336Z,11.43
2023-07-01T02:54:25.324Z,10.93
2023-07-01T02:54:57.221Z,10.80
2023-07-01T02:55:32.238Z,10.13
2023-07-01T02:56:04.442Z,9.77
2023-07-01T02:56:36.413Z,10.43
2023-07-01T02:57:11.940Z,10.57
2023-07-01T02:57:43.930Z,10.43
2023-07-01T02:58:15.960Z,10.53
2023-07-01T02:58:47.907Z,10.50
2023-07-01T02:59:19.925Z,10.77
2023-07-01T02:59:51.907Z,8.80
2023-07-01T03:00:24.140Z,9.37
2023-07-01T03:00:56.297Z,9.13
2023-07-01T03:01:28.276Z,9.33
2023-07-01T03:02:00.317Z,8.90
2023-07-01T03:02:32.305Z,10.00
2023-07-01T03:03:07.909Z,10.03
2023-07-01T03:03:40.125Z,9.90
2023-07-01T03:04:20.885Z,9.73
2023-07-01T03:04:53.478Z,8.77
2023-07-01T03:05:25.857Z,9.33
2023-07-01T03:05:57.855Z,10.07
2023-07-01T03:06:29.756Z,9.73
2023-07-01T03:07:02.334Z,9.20
2023-07-01T03:07:34.324Z,8.60
2023-07-01T03:08:07.172Z,8.57
2023-07-01T03:08:39.101Z,8.27
2023-07-01T03:09:11.974Z,8.67
2023-07-01T03:09:43.905Z,9.13
2023-07-01T03:10:16.015Z,8.37
2023-07-01T03:10:48.217Z,7.93
2023-07-01T03:11:20.448Z,7.37
2023-07-01T03:11:53.440Z,7.70
2023-07-01T03:12:25.394Z,7.97
2023-07-01T03:12:57.517Z,8.47
2023-07-01T03:13:29.463Z,7.97
2023-07-01T03:14:01.401Z,8.13
2023-07-01T03:14:33.334Z,7.47
2023-07-01T03:15:05.664Z,8.43
2023-07-01T03:15:37.676Z,7.23
2023-07-01T03:16:10.936Z,6.33
2023-07-01T03:16:43.312Z,7.00
2023-07-01T03:17:15.376Z,6.83
2023-07-01T03:17:48.813Z,6.43
2023-07-01T03:18:20.768Z,6.63
2023-07-01T03:18:52.712Z,7.00
2023-07-01T03:19:24.618Z,7.90
2023-07-01T03:19:56.527Z,7.43
2023-07-01T03:20:28.445Z,6.53
2023-07-01T03:21:02.155Z,7.33
2023-07-01T03:21:35.281Z,7.53
2023-07-01T03:22:07.158Z,6.73
2023-07-01T03:22:39.063Z,6.77
2023-07-01T03:23:11.665Z,7.93
2023-07-01T03:23:43.598Z,8.37
2023-07-01T03:24:15.647Z,8.27
2023-07-01T03:24:47.596Z,8.37
2023-07-01T03:25:19.819Z,9.10
2023-07-01T03:25:51.701Z,8.20
2023-07-01T03:26:23.740Z,8.23
2023-07-01T03:26:55.758Z,8.00
2023-07-01T03:27:27.734Z,8.43
2023-07-01T03:27:59.646Z,8.27
2023-07-01T03:28:31.603Z,8.60
2023-07-01T03:29:03.865Z,8.67
2023-07-01T03:29:35.811Z,9.10
2023-07-01T03:30:14.818Z,9.23
2023-07-01T03:30:47.250Z,9.43
2023-07-01T03:31:19.385Z,9.80
2023-07-01T03:31:51.390Z,10.30
2023-07-01T03:32:23.442Z,9.70
2023-07-01T03:32:55.970Z,9.40
2023-07-01T03:33:27.993Z,9.93
2023-07-01T03:34:00.240Z,10.23
2023-07-01T03:34:32.251Z,10.07
2023-07-01T03:35:04.544Z,10.00
2023-07-01T03:35:36.457Z,9.33
2023-07-01T03:36:08.593Z,9.80
2023-07-01T03:36:41.371Z,9.13
2023-07-01T03:37:13.677Z,9.47
2023-07-01T03:37:46.709Z,9.10
2023-07-01T03:38:18.652Z,9.03
2023-07-01T03:38:50.653Z,9.07
2023-07-01T03:39:22.602Z,9.17
2023-07-01T03:39:54.569Z,9.27
2023-07-01T03:40:26.490Z,8.93
2023-07-01T03:40:58.437Z,9.73
2023-07-01T03:41:30.433Z,10.30
2023-07-01T03:42:02.662Z,10.13
2023-07-01T03:42:34.713Z,10.80
2023-07-01T03:43:06.699Z,11.13
2023-07-01T03:43:38.636Z,11.13
2023-07-01T03:44:10.586Z,11.33
2023-07-01T03:44:42.499Z,11.10
2023-07-01T03:45:14.978Z,10.73
2023-07-01T03:45:47.072Z,10.83
2023-07-01T03:46:19.161Z,10.67
2023-07-01T03:46:51.112Z,10.50
2023-07-01T03:47:24.199Z,11.23
2023-07-01T03:47:56.277Z,10.83
2023-07-01T03:48:28.936Z,11.07
2023-07-01T03:49:00.913Z,11.20
2023-07-01T03:49:32.926Z,11.50
2023-07-01T03:50:05.654Z,11.70
2023-07-01T03:50:37.642Z,11.23
2023-07-01T03:51:09.917Z,10.83
2023-07-01T03:51:43.276Z,10.10
2023-07-01T03:52:15.302Z,8.67
2023-07-01T03:52:47.233Z,9.37
2023-07-01T03:53:19.259Z,9.97
2023-07-01T03:53:53.031Z,11.37
2023-07-01T03:54:25.030Z,11.97
2023-07-01T03:54:58.279Z,11.27
2023-07-01T03:55:30.248Z,10.20
2023-07-01T03:56:02.169Z,7.83
2023-07-01T03:56:34.182Z,9.50
2023-07-01T03:57:06.396Z,10.40
2023-07-01T03:57:38.759Z,9.93
2023-07-01T03:58:10.922Z,10.27
2023-07-01T03:58:42.858Z,10.07
2023-07-01T03:59:14.746Z,10.93
2023-07-01T03:59:46.701Z,10.10
2023-07-01T04:00:19.466Z,10.53
2023-07-01T04:00:53.678Z,10.97
2023-07-01T04:01:26.113Z,10.57
2023-07-01T04:01:58.655Z,10.87
2023-07-01T04:02:30.633Z,10.23
2023-07-01T04:03:10.503Z,10.40
2023-07-01T04:03:42.788Z,10.43
2023-07-01T04:04:14.994Z,10.47
2023-07-01T04:04:47.101Z,10.63
2023-07-01T04:05:19.926Z,10.50
2023-07-01T04:05:52.730Z,11.40
2023-07-01T04:06:24.738Z,10.80
2023-07-01T04:06:58.428Z,10.37
2023-07-01T04:07:30.339Z,10.47
2023-07-01T04:08:03.326Z,9.97
2023-07-01T04:08:35.266Z,10.00
2023-07-01T04:09:13.774Z,9.83
2023-07-01T04:09:46.169Z,10.77
2023-07-01T04:10:18.135Z,10.30
2023-07-01T04:10:50.052Z,9.83
2023-07-01T04:11:23.259Z,9.90
2023-07-01T04:11:55.379Z,9.97
2023-07-01T04:12:27.493Z,10.50
2023-07-01T04:13:01.418Z,9.47
2023-07-01T04:13:34.438Z,9.73
2023-07-01T04:14:06.439Z,10.37
2023-07-01T04:14:38.368Z,9.47
2023-07-01T04:15:13.579Z,9.20
2023-07-01T04:15:45.543Z,9.97
2023-07-01T04:16:17.580Z,9.87
2023-07-01T04:16:51.985Z,9.33
2023-07-01T04:17:24.097Z,10.47
2023-07-01T04:17:56.079Z,9.50
2023-07-01T04:18:28.152Z,8.87
2023-07-01T04:19:00.917Z,9.50
2023-07-01T04:19:32.844Z,10.20
2023-07-01T04:20:07.439Z,9.30
2023-07-01T04:20:41.318Z,8.77
2023-07-01T04:21:13.233Z,8.30
2023-07-01T04:21:45.164Z,8.90
2023-07-01T04:22:17.131Z,8.97
2023-07-01T04:22:49.716Z,8.07
2023-07-01T04:23:21.612Z,8.33
2023-07-01T04:23:53.612Z,8.17
2023-07-01T04:24:25.602Z,8.43
2023-07-01T04:24:57.540Z,8.03
2023-07-01T04:25:29.455Z,8.70
2023-07-01T04:26:01.501Z,8.00
2023-07-01T04:26:33.423Z,8.10
2023-07-01T04:27:05.540Z,8.80
2023-07-01T04:27:37.706Z,8.70
2023-07-01T04:28:09.771Z,8.47
2023-07-01T04:28:41.838Z,7.50
2023-07-01T04:29:14.189Z,8.33
2023-07-01T04:29:46.175Z,8.10
2023-07-01T04:30:18.275Z,8.23
2023-07-01T04:30:50.532Z,8.53
2023-07-01T04:31:23.211Z,8.67
2023-07-01T04:31:55.132Z,8.40
2023-07-01T04:32:27.043Z,7.93
2023-07-01T04:32:59.202Z,8.03
2023-07-01T04:33:31.229Z,8.37
2023-07-01T04:34:03.364Z,7.30
2023-07-01T04:34:35.520Z,8.07
2023-07-01T04:35:07.915Z,8.07
2023-07-01T04:35:40.197Z,8.27
2023-07-01T04:36:12.157Z,7.80
2023-07-01T04:36:44.046Z,7.23
2023-07-01T04:37:16.085Z,7.17
2023-07-01T04:37:48.265Z,7.60
2023-07-01T04:38:20.159Z,7.70
2023-07-01T04:38:52.115Z,7.50
2023-07-01T04:39:25.091Z,8.03
2023-07-01T04:39:57.524Z,6.50
2023-07-01T04:40:29.455Z,7.20
2023-07-01T04:41:02.712Z,7.40
2023-07-01T04:41:34.717Z,6.30
2023-07-01T04:42:06.826Z,6.97
2023-07-01T04:42:45.644Z,8.00
2023-07-01T04:43:17.592Z,7.50
2023-07-01T04:43:49.620Z,7.87
2023-07-01T04:44:25.382Z,8.57
2023-07-01T04:44:57.530Z,8.73
2023-07-01T04:45:34.587Z,8.93
2023-07-01T04:46:06.518Z,9.13
2023-07-01T04:46:38.417Z,9.30
2023-07-01T04:47:10.490Z,9.60
2023-07-01T04:47:42.518Z,10.33
2023-07-01T04:48:14.521Z,10.17
2023-07-01T04:48:46.706Z,9.23
2023-07-01T04:49:18.707Z,8.80
2023-07-01T04:49:54.357Z,9.73
2023-07-01T04:50:26.438Z,8.53
2023-07-01T04:50:58.854Z,8.07
2023-07-01T04:51:30.854Z,9.03
2023-07-01T04:52:02.972Z,9.10
2023-07-01T04:52:35.041Z,8.23
2023-07-01T04:53:06.981Z,7.73
2023-07-01T04:53:40.208Z,8.03
2023-07-01T04:54:12.241Z,7.77
2023-07-01T04:54:44.226Z,7.80
2023-07-01T04:55:16.567Z,7.63
2023-07-01T04:55:49.168Z,8.43
2023-07-01T04:56:25.139Z,8.00
2023-07-01T04:56:57.159Z,7.53
2023-07-01T04:57:29.096Z,7.67
2023-07-01T04:58:01.079Z,7.63
2023-07-01T04:58:33.086Z,7.83
2023-07-01T04:59:05.043Z,7.90
2023-07-01T04:59:37.949Z,7.60
2023-07-01T05:00:11.884Z,7.53
2023-07-01T05:00:44.079Z,8.17
2023-07-01T05:01:16.343Z,8.20
2023-07-01T05:01:48.357Z,8.17
2023-07-01T05:02:20.516Z,7.33
2023-07-01T05:02:52.702Z,6.67
2023-07-01T05:03:25.115Z,7.60
2023-07-01T05:03:57.341Z,7.00
2023-07-01T05:04:29.818Z,6.93
2023-07-01T05:05:02.191Z,6.97
2023-07-01T05:05:34.461Z,6.67
2023-07-01T05:06:07.071Z,7.33
2023-07-01T05:06:48.993Z,6.43
2023-07-01T05:07:20.877Z,6.33
2023-07-01T05:07:52.904Z,6.00
2023-07-01T05:08:24.989Z,5.53
2023-07-01T05:08:57.076Z,5.77
2023-07-01T05:09:29.169Z,5.93
2023-07-01T05:10:01.156Z,6.47
2023-07-01T05:10:33.158Z,6.37
2023-07-01T05:11:05.214Z,6.03
2023-07-01T05:11:37.416Z,5.93
2023-07-01T05:12:09.715Z,6.30
2023-07-01T05:12:41.865Z,6.47
2023-07-01T05:13:14.107Z,6.53
2023-07-01T05:13:46.310Z,6.53
2023-07-01T05:14:20.923Z,6.40
2023-07-01T05:14:53.199Z,6.03
2023-07-01T05:15:25.277Z,6.03
2023-07-01T05:15:57.682Z,6.90
2023-07-01T05:16:29.667Z,7.20
2023-07-01T05:17:01.657Z,7.30
2023-07-01T05:17:33.625Z,6.50
2023-07-01T05:18:05.696Z,6.37
2023-07-01T05:18:37.680Z,6.13
2023-07-01T05:19:10.286Z,6.23
2023-07-01T05:19:42.927Z,6.67
2023-07-01T05:20:19.255Z,6.43
2023-07-01T05:20:52.455Z,6.57
2023-07-01T05:21:25.512Z,6.17
2023-07-01T05:21:57.472Z,6.83
2023-07-01T05:22:29.470Z,6.43
2023-07-01T05:23:01.445Z,6.30
2023-07-01T05:23:33.598Z,6.13
2023-07-01T05:24:05.763Z,6.13
2023-07-01T05:24:37.763Z,6.43
2023-07-01T05:25:09.836Z,6.63
2023-07-01T05:25:43.824Z,6.27
2023-07-01T05:26:15.791Z,6.37
2023-07-01T05:26:52.218Z,6.20
2023-07-01T05:27:24.203Z,6.57
2023-07-01T05:27:59.152Z,6.57
2023-07-01T05:28:31.346Z,6.73
2023-07-01T05:29:03.473Z,6.73
2023-07-01T05:29:35.515Z,6.23
2023-07-01T05:30:08.287Z,6.23
2023-07-01T05:30:40.393Z,6.53
2023-07-01T05:31:12.506Z,6.83
2023-07-01T05:31:44.555Z,6.83
2023-07-01T05:32:16.684Z,6.57
2023-07-01T05:32:48.691Z,6.50
2023-07-01T05:33:20.852Z,6.23
2023-07-01T05:33:52.820Z,6.37
2023-07-01T05:34:25.455Z,6.37
2023-07-01T05:34:57.772Z,6.23
2023-07-01T05:35:29.723Z,6.23
2023-07-01T05:36:02.056Z,6.23
2023-07-01T05:36:34.258Z,6.40
2023-07-01T05:37:06.584Z,5.83
2023-07-01T05:37:38.666Z,5.73
2023-07-01T05:38:12.378Z,6.07
2023-07-01T05:38:44.467Z,5.73
2023-07-01T05:39:17.042Z,5.43
2023-07-01T05:39:52.026Z,5.63
2023-07-01T05:40:24.117Z,5.73
2023-07-01T05:40:56.044Z,6.00
2023-07-01T05:41:28.006Z,5.90
2023-07-01T05:42:00.009Z,5.17
2023-07-01T05:42:32.791Z,5.67
2023-07-01T05:43:05.291Z,5.60
2023-07-01T05:43:39.603Z,5.50
2023-07-01T05:44:12.645Z,5.80
2023-07-01T05:44:44.663Z,5.30
2023-07-01T05:45:16.711Z,5.47
2023-07-01T05:45:48.978Z,5.40
2023-07-01T05:46:21.068Z,4.93
2023-07-01T05:46:53.973Z,5.77
2023-07-01T05:47:26.156Z,6.13
2023-07-01T05:47:58.909Z,5.87
2023-07-01T05:48:30.992Z,5.53
2023-07-01T05:49:03.085Z,4.90
2023-07-01T05:49:35.069Z,5.10
2023-07-01T05:50:07.412Z,4.77
2023-07-01T05:50:43.045Z,4.37
2023-07-01T05:51:15.378Z,4.23
2023-07-01T05:51:47.705Z,4.37
2023-07-01T05:52:19.973Z,4.33
2023-07-01T05:52:52.166Z,3.93
2023-07-01T05:53:24.438Z,4.07
2023-07-01T05:53:56.804Z,4.03
2023-07-01T05:54:29.241Z,4.27
2023-07-01T05:55:01.613Z,4.10
2023-07-01T05:55:33.762Z,3.90
2023-07-01T05:56:05.684Z,4.07
2023-07-01T05:56:40.435Z,3.60
2023-07-01T05:57:12.672Z,3.83
2023-07-01T05:57:44.722Z,4.53
2023-07-01T05:58:17.069Z,3.63
2023-07-01T05:58:49.012Z,3.80
2023-07-01T05:59:21.071Z,3.83
2023-07-01T05:59:52.946Z,4.07
2023-07-01T06:00:24.982Z,3.90
2023-07-01T06:00:56.883Z,3.37
2023-07-01T06:01:30.305Z,3.13
2023-07-01T06:02:02.485Z,3.70
2023-07-01T06:02:34.673Z,3.63
2023-07-01T06:03:06.681Z,3.37
2023-07-01T06:03:38.698Z,3.80
2023-07-01T06:04:11.003Z,3.23
2023-07-01T06:04:44.001Z,3.23
2023-07-01T06:05:16.179Z,3.63
2023-07-01T06:05:48.373Z,4.10
2023-07-01T06:06:22.887Z,4.10
2023-07-01T06:06:54.811Z,3.17
2023-07-01T06:07:26.875Z,2.97
2023-07-01T06:07:59.104Z,2.97
2023-07-01T06:08:31.195Z,3.07
2023-07-01T06:09:03.758Z,3.03
2023-07-01T06:09:35.769Z,2.80
2023-07-01T06:10:08.082Z,2.80
2023-07-01T06:10:40.047Z,2.87
2023-07-01T06:11:11.920Z,2.57
2023-07-01T06:11:43.890Z,2.73
2023-07-01T06:12:16.686Z,2.93
2023-07-01T06:12:48.743Z,3.03
2023-07-01T06:13:21.148Z,2.53
2023-07-01T06:13:54.529Z,2.53
2023-07-01T06:14:27.344Z,2.90
2023-07-01T06:14:59.309Z,2.80
2023-07-01T06:15:31.422Z,2.90
2023-07-01T06:16:03.482Z,3.13
2023-07-01T06:16:35.609Z,2.87
2023-07-01T06:17:07.643Z,2.87
2023-07-01T06:17:39.807Z,2.90
2023-07-01T06:18:15.142Z,2.63
2023-07-01T06:18:47.279Z,3.03
2023-07-01T06:19:19.246Z,3.03
2023-07-01T06:19:51.250Z,3.03
2023-07-01T06:20:23.179Z,2.63
2023-07-01T06:20:56.075Z,2.73
2023-07-01T06:21:28.095Z,2.73
2023-07-01T06:22:00.123Z,2.63
2023-07-01T06:22:32.256Z,2.90
2023-07-01T06:23:04.236Z,2.67
2023-07-01T06:23:39.361Z,2.70
2023-07-01T06:24:12.097Z,2.77
2023-07-01T06:24:44.112Z,2.53
2023-07-01T06:25:16.516Z,2.60
2023-07-01T06:25:48.415Z,2.70
2023-07-01T06:26:20.922Z,2.60
2023-07-01T06:26:53.027Z,3.77
2023-07-01T06:27:24.929Z,3.73
2023-07-01T06:27:56.995Z,2.60
2023-07-01T06:28:28.927Z,2.90
2023-07-01T06:29:04.415Z,3.53
2023-07-01T06:29:36.432Z,4.43
2023-07-01T06:30:09.236Z,3.97
2023-07-01T06:30:41.472Z,3.20
2023-07-01T06:31:16.370Z,3.03
2023-07-01T06:31:48.574Z,3.40
2023-07-01T06:32:20.584Z,3.37
2023-07-01T06:32:53.993Z,3.13
2023-07-01T06:33:26.033Z,2.80
2023-07-01T06:33:58.182Z,2.73
2023-07-01T06:34:30.232Z,2.73
2023-07-01T06:35:02.296Z,3.03
2023-07-01T06:35:34.439Z,3.37
2023-07-01T06:36:07.245Z,3.67
2023-07-01T06:36:39.153Z,3.67
2023-07-01T06:37:11.152Z,3.30
2023-07-01T06:37:43.440Z,3.00
2023-07-01T06:38:15.462Z,3.13
2023-07-01T06:38:50.368Z,3.20
2023-07-01T06:39:22.359Z,3.20
2023-07-01T06:39:54.333Z,3.30
2023-07-01T06:40:26.604Z,3.10
2023-07-01T06:40:58.739Z,2.90
2023-07-01T06:41:30.709Z,3.23
2023-07-01T06:42:02.663Z,3.37
2023-07-01T06:42:36.300Z,3.10
2023-07-01T06:43:08.290Z,2.90
2023-07-01T06:43:40.622Z,3.10
2023-07-01T06:44:13.776Z,2.90
2023-07-01T06:44:45.916Z,3.17
2023-07-01T06:45:17.900Z,3.43
2023-07-01T06:45:49.878Z,3.17
2023-07-01T06:46:21.846Z,3.30
2023-07-01T06:46:53.963Z,2.93
2023-07-01T06:47:25.946Z,3.17
2023-07-01T06:47:59.127Z,3.33
2023-07-01T06:48:31.388Z,3.13
2023-07-01T06:49:03.393Z,3.40
2023-07-01T06:49:35.383Z,3.20
2023-07-01T06:50:08.170Z,3.17
2023-07-01T06:50:40.098Z,3.23
2023-07-01T06:51:12.052Z,3.53
2023-07-01T06:51:44.086Z,3.30
2023-07-01T06:52:16.099Z,3.20
2023-07-01T06:52:48.108Z,3.13
2023-07-01T06:53:20.192Z,3.37
2023-07-01T06:53:52.135Z,3.27
2023-07-01T06:54:24.296Z,3.40
2023-07-01T06:54:56.275Z,3.20
2023-07-01T06:55:28.244Z,3.13
2023-07-01T06:56:00.330Z,3.57
2023-07-01T06:56:32.224Z,3.40
2023-07-01T06:57:04.363Z,3.53
2023-07-01T06:57:37.334Z,3.60
2023-07-01T06:58:09.297Z,3.40
2023-07-01T06:58:44.225Z,3.37
2023-07-01T06:59:16.151Z,3.43
2023-07-01T06:59:48.182Z,3.57
2023-07-01T07:00:20.155Z,3.63
2023-07-01T07:00:52.104Z,3.50
2023-07-01T07:01:24.383Z,3.53
2023-07-01T07:01:56.354Z,3.43
2023-07-01T07:02:28.284Z,3.70
2023-07-01T07:03:02.103Z,3.97
2023-07-01T07:03:35.068Z,3.87
2023-07-01T07:04:08.185Z,3.90
2023-07-01T07:04:40.280Z,3.43
2023-07-01T07:05:12.272Z,3.60
2023-07-01T07:05:44.395Z,4.07
2023-07-01T07:06:16.360Z,3.93
2023-07-01T07:06:48.330Z,3.97
2023-07-01T07:07:20.295Z,4.00
2023-07-01T07:07:52.356Z,3.73
2023-07-01T07:08:24.304Z,3.73
2023-07-01T07:08:56.309Z,3.60
2023-07-01T07:09:28.175Z,3.83
2023-07-01T07:10:00.370Z,3.77
2023-07-01T07:10:32.372Z,3.53
2023-07-01T07:11:04.312Z,3.87
2023-07-01T07:11:36.255Z,3.77
2023-07-01T07:12:08.658Z,4.07
2023-07-01T07:12:40.657Z,4.03
2023-07-01T07:13:12.562Z,3.70